sensor_id;sensor_type;location;lat;lon;timestamp;P1;durP1;ratioP1;P2;durP2;ratioP2
16440;SDS011;8330;-33.858;151.184;2024-01-15T00:00:32;17.52;;;3.22;;
16440;SDS011;8330;-33.858;151.184;2024-01-15T00:03:02;11.90;;;2.83;;
16440;SDS011;8330;-33.858;151.184;2024-01-15T00:05:34;21.23;;;3.75;;
16440;SDS011;8330;-33.858;151.184;2024-01-15T00:08:06;15.88;;;2.70;;
16440;SDS011;8330;-33.858;151.184;2024-01-15T00:10:37;18.60;;;3.10;;
16440;SDS011;8330;-33.858;151.184;2024-01-15T00:13:08;21.20;;;3.67;;
16440;SDS011;8330;-33.858;151.184;2024-01-15T00:15:39;18.58;;;3.67;;
16440;SDS011;8330;-33.858;151.184;2024-01-15T00:18:09;17.88;;;3.25;;
16440;SDS011;8330;-33.858;151.184;2024-01-15T00:20:43;15.45;;;3.35;;
16440;SDS011;8330;-33.858;151.184;2024-01-15T00:23:16;14.80;;;3.03;;
16440;SDS011;8330;-33.858;151.184;2024-01-15T00:25:46;15.18;;;3.30;;
16440;SDS011;8330;-33.858;151.184;2024-01-15T00:28:17;19.20;;;3.15;;
16440;SDS011;8330;-33.858;151.184;2024-01-15T00:30:48;15.07;;;3.17;;
16440;SDS011;8330;-33.858;151.184;2024-01-15T00:33:18;12.88;;;2.47;;
16440;SDS011;8330;-33.858;151.184;2024-01-15T00:35:49;16.75;;;3.40;;
16440;SDS011;8330;-33.858;151.184;2024-01-15T00:38:22;17.33;;;3.08;;
16440;SDS011;8330;-33.858;151.184;2024-01-15T00:40:53;19.02;;;3.42;;
16440;SDS011;8330;-33.858;151.184;2024-01-15T00:43:26;18.65;;;3.08;;
16440;SDS011;8330;-33.858;151.184;2024-01-15T00:46:01;15.90;;;3.30;;
16440;SDS011;8330;-33.858;151.184;2024-01-15T00:48:32;18.38;;;3.28;;
16440;SDS011;8330;-33.858;151.184;2024-01-15T00:51:03;14.00;;;3.10;;
16440;SDS011;8330;-33.858;151.184;2024-01-15T00:53:36;11.77;;;2.88;;
16440;SDS011;8330;-33.858;151.184;2024-01-15T00:56:06;18.15;;;3.10;;
16440;SDS011;8330;-33.858;151.184;2024-01-15T00:58:37;15.25;;;2.83;;
16440;SDS011;8330;-33.858;151.184;2024-01-15T01:01:08;15.15;;;2.80;;
16440;SDS011;8330;-33.858;151.184;2024-01-15T01:03:39;14.45;;;2.75;;
16440;SDS011;8330;-33.858;151.184;2024-01-15T01:06:09;13.90;;;2.80;;
16440;SDS011;8330;-33.858;151.184;2024-01-15T01:08:42;13.40;;;2.60;;
16440;SDS011;8330;-33.858;151.184;2024-01-15T01:11:13;15.82;;;2.78;;
16440;SDS011;8330;-33.858;151.184;2024-01-15T01:13:44;16.77;;;2.75;;
16440;SDS011;8330;-33.858;151.184;2024-01-15T01:16:15;10.43;;;2.22;;
16440;SDS011;8330;-33.858;151.184;2024-01-15T01:18:45;12.57;;;2.83;;
16440;SDS011;8330;-33.858;151.184;2024-01-15T01:21:16;14.82;;;2.83;;
16440;SDS011;8330;-33.858;151.184;2024-01-15T01:23:49;15.68;;;3.20;;
16440;SDS011;8330;-33.858;151.184;2024-01-15T01:26:20;15.18;;;2.80;;
16440;SDS011;8330;-33.858;151.184;2024-01-15T01:28:50;11.52;;;2.63;;
16440;SDS011;8330;-33.858;151.184;2024-01-15T01:31:21;18.42;;;2.65;;
16440;SDS011;8330;-33.858;151.184;2024-01-15T01:33:52;11.80;;;2.53;;
16440;SDS011;8330;-33.858;151.184;2024-01-15T01:36:23;16.85;;;2.90;;
16440;SDS011;8330;-33.858;151.184;2024-01-15T01:38:56;17.17;;;3.38;;
16440;SDS011;8330;-33.858;151.184;2024-01-15T01:41:26;16.50;;;3.05;;
16440;SDS011;8330;-33.858;151.184;2024-01-15T01:43:57;11.43;;;2.50;;
16440;SDS011;8330;-33.858;151.184;2024-01-15T01:46:28;9.82;;;2.40;;
16440;SDS011;8330;-33.858;151.184;2024-01-15T01:49:00;11.55;;;2.47;;
16440;SDS011;8330;-33.858;151.184;2024-01-15T01:51:32;12.25;;;2.30;;
16440;SDS011;8330;-33.858;151.184;2024-01-15T01:54:07;10.95;;;2.55;;
16440;SDS011;8330;-33.858;151.184;2024-01-15T01:56:40;11.02;;;2.45;;
16440;SDS011;8330;-33.858;151.184;2024-01-15T01:59:11;9.38;;;2.08;;
16440;SDS011;8330;-33.858;151.184;2024-01-15T02:01:42;16.95;;;2.85;;
16440;SDS011;8330;-33.858;151.184;2024-01-15T02:04:13;11.50;;;2.20;;
16440;SDS011;8330;-33.858;151.184;2024-01-15T02:06:44;13.90;;;2.95;;
16440;SDS011;8330;-33.858;151.184;2024-01-15T02:09:17;10.60;;;2.22;;
16440;SDS011;8330;-33.858;151.184;2024-01-15T02:11:48;10.57;;;2.92;;
16440;SDS011;8330;-33.858;151.184;2024-01-15T02:14:19;13.85;;;2.65;;
16440;SDS011;8330;-33.858;151.184;2024-01-15T02:16:49;6.60;;;1.92;;
16440;SDS011;8330;-33.858;151.184;2024-01-15T02:19:20;9.70;;;2.00;;
16440;SDS011;8330;-33.858;151.184;2024-01-15T02:21:51;10.18;;;2.53;;
16440;SDS011;8330;-33.858;151.184;2024-01-15T02:24:23;9.45;;;2.30;;
16440;SDS011;8330;-33.858;151.184;2024-01-15T02:26:55;9.27;;;2.40;;
16440;SDS011;8330;-33.858;151.184;2024-01-15T02:29:26;12.95;;;2.50;;
16440;SDS011;8330;-33.858;151.184;2024-01-15T02:31:56;15.55;;;2.40;;
16440;SDS011;8330;-33.858;151.184;2024-01-15T02:34:29;10.27;;;2.10;;
16440;SDS011;8330;-33.858;151.184;2024-01-15T02:37:01;11.43;;;2.38;;
16440;SDS011;8330;-33.858;151.184;2024-01-15T02:39:34;13.35;;;2.78;;
16440;SDS011;8330;-33.858;151.184;2024-01-15T02:42:05;12.98;;;2.15;;
16440;SDS011;8330;-33.858;151.184;2024-01-15T02:44:36;8.88;;;2.22;;
16440;SDS011;8330;-33.858;151.184;2024-01-15T02:47:06;11.40;;;2.25;;
16440;SDS011;8330;-33.858;151.184;2024-01-15T02:49:37;9.90;;;1.85;;
16440;SDS011;8330;-33.858;151.184;2024-01-15T02:52:08;10.15;;;2.10;;
16440;SDS011;8330;-33.858;151.184;2024-01-15T02:54:40;13.80;;;2.65;;
16440;SDS011;8330;-33.858;151.184;2024-01-15T02:57:11;9.63;;;2.40;;
16440;SDS011;8330;-33.858;151.184;2024-01-15T02:59:42;12.88;;;2.75;;
16440;SDS011;8330;-33.858;151.184;2024-01-15T03:02:13;15.43;;;3.33;;
16440;SDS011;8330;-33.858;151.184;2024-01-15T03:04:44;11.00;;;2.60;;
16440;SDS011;8330;-33.858;151.184;2024-01-15T03:07:15;12.45;;;2.40;;
16440;SDS011;8330;-33.858;151.184;2024-01-15T03:09:47;10.30;;;2.63;;
16440;SDS011;8330;-33.858;151.184;2024-01-15T03:12:18;11.73;;;2.42;;
16440;SDS011;8330;-33.858;151.184;2024-01-15T03:14:49;13.95;;;2.65;;
16440;SDS011;8330;-33.858;151.184;2024-01-15T03:17:20;12.15;;;2.50;;
16440;SDS011;8330;-33.858;151.184;2024-01-15T03:19:50;13.02;;;2.00;;
16440;SDS011;8330;-33.858;151.184;2024-01-15T03:22:21;16.25;;;3.00;;
16440;SDS011;8330;-33.858;151.184;2024-01-15T03:24:54;15.32;;;2.45;;
16440;SDS011;8330;-33.858;151.184;2024-01-15T03:27:30;9.35;;;2.17;;
16440;SDS011;8330;-33.858;151.184;2024-01-15T03:30:03;10.63;;;2.33;;
16440;SDS011;8330;-33.858;151.184;2024-01-15T03:32:35;10.18;;;2.17;;
16440;SDS011;8330;-33.858;151.184;2024-01-15T03:35:06;11.05;;;2.17;;
16440;SDS011;8330;-33.858;151.184;2024-01-15T03:37:37;9.35;;;2.13;;
16440;SDS011;8330;-33.858;151.184;2024-01-15T03:40:11;12.75;;;2.78;;
16440;SDS011;8330;-33.858;151.184;2024-01-15T03:42:41;7.97;;;1.95;;
16440;SDS011;8330;-33.858;151.184;2024-01-15T03:45:12;11.13;;;2.10;;
16440;SDS011;8330;-33.858;151.184;2024-01-15T03:47:43;13.88;;;2.65;;
16440;SDS011;8330;-33.858;151.184;2024-01-15T03:50:14;14.68;;;2.67;;
16440;SDS011;8330;-33.858;151.184;2024-01-15T03:52:45;12.48;;;2.05;;
16440;SDS011;8330;-33.858;151.184;2024-01-15T03:55:17;10.85;;;2.10;;
16440;SDS011;8330;-33.858;151.184;2024-01-15T03:57:50;14.73;;;2.70;;
16440;SDS011;8330;-33.858;151.184;2024-01-15T04:00:21;10.77;;;2.30;;
16440;SDS011;8330;-33.858;151.184;2024-01-15T04:02:51;10.35;;;2.08;;
16440;SDS011;8330;-33.858;151.184;2024-01-15T04:05:22;15.02;;;3.03;;
16440;SDS011;8330;-33.858;151.184;2024-01-15T04:07:53;12.35;;;2.60;;
16440;SDS011;8330;-33.858;151.184;2024-01-15T04:10:25;10.10;;;2.10;;
16440;SDS011;8330;-33.858;151.184;2024-01-15T04:12:56;7.43;;;1.90;;
16440;SDS011;8330;-33.858;151.184;2024-01-15T04:15:29;8.88;;;2.30;;
16440;SDS011;8330;-33.858;151.184;2024-01-15T04:18:00;9.20;;;1.92;;
16440;SDS011;8330;-33.858;151.184;2024-01-15T04:20:31;8.18;;;1.92;;
16440;SDS011;8330;-33.858;151.184;2024-01-15T04:23:02;10.02;;;2.38;;
16440;SDS011;8330;-33.858;151.184;2024-01-15T04:25:34;11.02;;;2.10;;
16440;SDS011;8330;-33.858;151.184;2024-01-15T04:28:07;11.80;;;2.15;;
16440;SDS011;8330;-33.858;151.184;2024-01-15T04:30:38;11.35;;;2.33;;
16440;SDS011;8330;-33.858;151.184;2024-01-15T04:33:09;14.68;;;2.30;;
16440;SDS011;8330;-33.858;151.184;2024-01-15T04:35:39;7.00;;;1.55;;
16440;SDS011;8330;-33.858;151.184;2024-01-15T04:38:10;11.55;;;2.00;;
16440;SDS011;8330;-33.858;151.184;2024-01-15T04:40:43;7.18;;;2.03;;
16440;SDS011;8330;-33.858;151.184;2024-01-15T04:43:13;10.15;;;1.77;;
16440;SDS011;8330;-33.858;151.184;2024-01-15T04:45:44;9.10;;;1.92;;
16440;SDS011;8330;-33.858;151.184;2024-01-15T04:48:15;5.28;;;1.83;;
16440;SDS011;8330;-33.858;151.184;2024-01-15T04:50:46;10.40;;;2.25;;
16440;SDS011;8330;-33.858;151.184;2024-01-15T04:53:16;8.93;;;2.10;;
16440;SDS011;8330;-33.858;151.184;2024-01-15T04:55:49;8.52;;;2.08;;
16440;SDS011;8330;-33.858;151.184;2024-01-15T04:58:20;11.55;;;1.80;;
16440;SDS011;8330;-33.858;151.184;2024-01-15T05:00:52;10.35;;;2.35;;
16440;SDS011;8330;-33.858;151.184;2024-01-15T05:03:23;8.55;;;1.92;;
16440;SDS011;8330;-33.858;151.184;2024-01-15T05:05:54;10.63;;;2.10;;
16440;SDS011;8330;-33.858;151.184;2024-01-15T05:08:25;12.50;;;2.17;;
16440;SDS011;8330;-33.858;151.184;2024-01-15T05:10:57;11.85;;;2.30;;
16440;SDS011;8330;-33.858;151.184;2024-01-15T05:13:31;8.55;;;1.90;;
16440;SDS011;8330;-33.858;151.184;2024-01-15T05:16:02;10.02;;;2.00;;
16440;SDS011;8330;-33.858;151.184;2024-01-15T05:18:33;11.23;;;2.40;;
16440;SDS011;8330;-33.858;151.184;2024-01-15T05:21:04;10.65;;;1.85;;
16440;SDS011;8330;-33.858;151.184;2024-01-15T05:23:35;8.18;;;1.90;;
16440;SDS011;8330;-33.858;151.184;2024-01-15T05:26:07;10.00;;;2.40;;
16440;SDS011;8330;-33.858;151.184;2024-01-15T05:28:38;10.40;;;1.95;;
16440;SDS011;8330;-33.858;151.184;2024-01-15T05:31:11;8.02;;;2.17;;
16440;SDS011;8330;-33.858;151.184;2024-01-15T05:33:41;12.25;;;2.85;;
16440;SDS011;8330;-33.858;151.184;2024-01-15T05:36:12;11.05;;;2.22;;
16440;SDS011;8330;-33.858;151.184;2024-01-15T05:38:43;11.35;;;1.77;;
16440;SDS011;8330;-33.858;151.184;2024-01-15T05:41:16;8.50;;;2.00;;
16440;SDS011;8330;-33.858;151.184;2024-01-15T05:43:47;14.50;;;2.92;;
16440;SDS011;8330;-33.858;151.184;2024-01-15T05:46:17;9.05;;;2.00;;
16440;SDS011;8330;-33.858;151.184;2024-01-15T05:48:48;11.23;;;2.28;;
16440;SDS011;8330;-33.858;151.184;2024-01-15T05:51:19;9.57;;;2.08;;
16440;SDS011;8330;-33.858;151.184;2024-01-15T05:53:50;9.80;;;1.83;;
16440;SDS011;8330;-33.858;151.184;2024-01-15T05:56:22;10.32;;;2.17;;
16440;SDS011;8330;-33.858;151.184;2024-01-15T05:58:53;9.52;;;2.20;;
16440;SDS011;8330;-33.858;151.184;2024-01-15T06:01:24;9.63;;;2.35;;
16440;SDS011;8330;-33.858;151.184;2024-01-15T06:03:54;8.90;;;1.90;;
16440;SDS011;8330;-33.858;151.184;2024-01-15T06:06:25;10.75;;;2.25;;
16440;SDS011;8330;-33.858;151.184;2024-01-15T06:08:56;11.40;;;2.20;;
16440;SDS011;8330;-33.858;151.184;2024-01-15T06:11:33;7.15;;;1.90;;
16440;SDS011;8330;-33.858;151.184;2024-01-15T06:14:06;6.60;;;1.67;;
16440;SDS011;8330;-33.858;151.184;2024-01-15T06:16:38;8.65;;;2.20;;
16440;SDS011;8330;-33.858;151.184;2024-01-15T06:19:08;8.95;;;1.98;;
16440;SDS011;8330;-33.858;151.184;2024-01-15T06:21:39;15.43;;;2.20;;
16440;SDS011;8330;-33.858;151.184;2024-01-15T06:24:10;7.88;;;1.98;;
16440;SDS011;8330;-33.858;151.184;2024-01-15T06:26:43;9.63;;;2.50;;
16440;SDS011;8330;-33.858;151.184;2024-01-15T06:29:15;9.30;;;2.25;;
16440;SDS011;8330;-33.858;151.184;2024-01-15T06:31:46;8.77;;;1.98;;
16440;SDS011;8330;-33.858;151.184;2024-01-15T06:34:17;8.27;;;2.10;;
16440;SDS011;8330;-33.858;151.184;2024-01-15T06:36:48;9.02;;;2.05;;
16440;SDS011;8330;-33.858;151.184;2024-01-15T06:39:19;10.60;;;2.42;;
16440;SDS011;8330;-33.858;151.184;2024-01-15T06:41:51;14.13;;;1.90;;
16440;SDS011;8330;-33.858;151.184;2024-01-15T06:44:22;10.15;;;2.00;;
16440;SDS011;8330;-33.858;151.184;2024-01-15T06:46:53;8.43;;;1.73;;
16440;SDS011;8330;-33.858;151.184;2024-01-15T06:49:28;9.57;;;2.08;;
16440;SDS011;8330;-33.858;151.184;2024-01-15T06:51:59;7.82;;;1.77;;
16440;SDS011;8330;-33.858;151.184;2024-01-15T06:54:32;8.43;;;1.83;;
16440;SDS011;8330;-33.858;151.184;2024-01-15T06:57:05;11.20;;;2.22;;
16440;SDS011;8330;-33.858;151.184;2024-01-15T06:59:36;8.93;;;1.83;;
16440;SDS011;8330;-33.858;151.184;2024-01-15T07:02:07;9.63;;;1.90;;
16440;SDS011;8330;-33.858;151.184;2024-01-15T07:04:38;12.45;;;2.28;;
16440;SDS011;8330;-33.858;151.184;2024-01-15T07:07:09;8.98;;;1.85;;
16440;SDS011;8330;-33.858;151.184;2024-01-15T07:09:42;9.88;;;1.80;;
16440;SDS011;8330;-33.858;151.184;2024-01-15T07:12:15;6.18;;;1.63;;
16440;SDS011;8330;-33.858;151.184;2024-01-15T07:14:45;9.73;;;2.10;;
16440;SDS011;8330;-33.858;151.184;2024-01-15T07:17:16;7.28;;;1.90;;
16440;SDS011;8330;-33.858;151.184;2024-01-15T07:19:47;8.93;;;2.03;;
16440;SDS011;8330;-33.858;151.184;2024-01-15T07:22:17;7.30;;;1.80;;
16440;SDS011;8330;-33.858;151.184;2024-01-15T07:24:51;9.50;;;1.90;;
16440;SDS011;8330;-33.858;151.184;2024-01-15T07:27:24;7.85;;;2.05;;
16440;SDS011;8330;-33.858;151.184;2024-01-15T07:29:55;8.25;;;1.85;;
16440;SDS011;8330;-33.858;151.184;2024-01-15T07:32:25;7.10;;;1.90;;
16440;SDS011;8330;-33.858;151.184;2024-01-15T07:34:57;8.95;;;2.10;;
16440;SDS011;8330;-33.858;151.184;2024-01-15T07:37:28;6.78;;;1.58;;
16440;SDS011;8330;-33.858;151.184;2024-01-15T07:39:59;7.65;;;2.05;;
16440;SDS011;8330;-33.858;151.184;2024-01-15T07:42:32;7.55;;;2.10;;
16440;SDS011;8330;-33.858;151.184;2024-01-15T07:45:04;9.25;;;1.90;;
16440;SDS011;8330;-33.858;151.184;2024-01-15T07:47:35;7.22;;;1.80;;
16440;SDS011;8330;-33.858;151.184;2024-01-15T07:50:06;8.98;;;2.33;;
16440;SDS011;8330;-33.858;151.184;2024-01-15T07:52:37;8.48;;;2.00;;
16440;SDS011;8330;-33.858;151.184;2024-01-15T07:55:08;8.88;;;1.98;;
16440;SDS011;8330;-33.858;151.184;2024-01-15T07:57:41;5.40;;;1.83;;
16440;SDS011;8330;-33.858;151.184;2024-01-15T08:00:12;12.63;;;2.25;;
16440;SDS011;8330;-33.858;151.184;2024-01-15T08:02:43;9.35;;;2.30;;
16440;SDS011;8330;-33.858;151.184;2024-01-15T08:05:14;7.63;;;2.00;;
16440;SDS011;8330;-33.858;151.184;2024-01-15T08:07:45;9.23;;;2.40;;
16440;SDS011;8330;-33.858;151.184;2024-01-15T08:10:15;7.25;;;1.80;;
16440;SDS011;8330;-33.858;151.184;2024-01-15T08:12:48;10.23;;;2.13;;
16440;SDS011;8330;-33.858;151.184;2024-01-15T08:15:19;7.50;;;2.05;;
16440;SDS011;8330;-33.858;151.184;2024-01-15T08:17:50;9.25;;;2.10;;
16440;SDS011;8330;-33.858;151.184;2024-01-15T08:20:21;13.98;;;2.42;;
16440;SDS011;8330;-33.858;151.184;2024-01-15T08:22:51;9.55;;;2.13;;
16440;SDS011;8330;-33.858;151.184;2024-01-15T08:25:22;7.20;;;2.05;;
16440;SDS011;8330;-33.858;151.184;2024-01-15T08:27:55;7.78;;;2.40;;
16440;SDS011;8330;-33.858;151.184;2024-01-15T08:30:26;10.02;;;2.20;;
16440;SDS011;8330;-33.858;151.184;2024-01-15T08:32:57;10.70;;;1.92;;
16440;SDS011;8330;-33.858;151.184;2024-01-15T08:35:28;8.63;;;1.90;;
16440;SDS011;8330;-33.858;151.184;2024-01-15T08:38:00;7.38;;;2.05;;
16440;SDS011;8330;-33.858;151.184;2024-01-15T08:40:32;10.68;;;2.10;;
16440;SDS011;8330;-33.858;151.184;2024-01-15T08:43:05;10.63;;;2.20;;
16440;SDS011;8330;-33.858;151.184;2024-01-15T08:45:36;8.95;;;2.05;;
16440;SDS011;8330;-33.858;151.184;2024-01-15T08:48:06;6.57;;;1.83;;
16440;SDS011;8330;-33.858;151.184;2024-01-15T08:50:37;6.93;;;1.70;;
16440;SDS011;8330;-33.858;151.184;2024-01-15T08:53:08;12.88;;;2.47;;
16440;SDS011;8330;-33.858;151.184;2024-01-15T08:55:39;6.80;;;2.00;;
16440;SDS011;8330;-33.858;151.184;2024-01-15T08:58:12;4.85;;;1.52;;
16440;SDS011;8330;-33.858;151.184;2024-01-15T09:00:45;7.28;;;1.52;;
16440;SDS011;8330;-33.858;151.184;2024-01-15T09:03:20;6.47;;;1.52;;
16440;SDS011;8330;-33.858;151.184;2024-01-15T09:05:51;7.18;;;1.40;;
16440;SDS011;8330;-33.858;151.184;2024-01-15T09:08:25;4.75;;;1.40;;
16440;SDS011;8330;-33.858;151.184;2024-01-15T09:10:59;7.55;;;1.67;;
16440;SDS011;8330;-33.858;151.184;2024-01-15T09:13:32;7.05;;;1.70;;
16440;SDS011;8330;-33.858;151.184;2024-01-15T09:16:03;7.60;;;1.70;;
16440;SDS011;8330;-33.858;151.184;2024-01-15T09:18:34;6.57;;;1.60;;
16440;SDS011;8330;-33.858;151.184;2024-01-15T09:21:05;4.13;;;1.42;;
16440;SDS011;8330;-33.858;151.184;2024-01-15T09:23:36;8.00;;;1.60;;
16440;SDS011;8330;-33.858;151.184;2024-01-15T09:26:08;7.75;;;1.63;;
16440;SDS011;8330;-33.858;151.184;2024-01-15T09:28:40;5.25;;;1.63;;
16440;SDS011;8330;-33.858;151.184;2024-01-15T09:31:11;6.10;;;1.42;;
16440;SDS011;8330;-33.858;151.184;2024-01-15T09:33:43;9.13;;;1.63;;
16440;SDS011;8330;-33.858;151.184;2024-01-15T09:36:14;8.75;;;1.80;;
16440;SDS011;8330;-33.858;151.184;2024-01-15T09:38:45;10.73;;;2.40;;
16440;SDS011;8330;-33.858;151.184;2024-01-15T09:41:15;8.90;;;1.95;;
16440;SDS011;8330;-33.858;151.184;2024-01-15T09:43:48;7.85;;;1.83;;
16440;SDS011;8330;-33.858;151.184;2024-01-15T09:46:19;8.82;;;1.73;;
16440;SDS011;8330;-33.858;151.184;2024-01-15T09:48:50;12.45;;;2.70;;
16440;SDS011;8330;-33.858;151.184;2024-01-15T09:51:21;11.65;;;2.28;;
16440;SDS011;8330;-33.858;151.184;2024-01-15T09:53:53;9.32;;;2.17;;
16440;SDS011;8330;-33.858;151.184;2024-01-15T09:56:26;12.85;;;2.30;;
16440;SDS011;8330;-33.858;151.184;2024-01-15T09:58:58;11.15;;;2.22;;
16440;SDS011;8330;-33.858;151.184;2024-01-15T10:01:30;10.63;;;2.25;;
16440;SDS011;8330;-33.858;151.184;2024-01-15T10:04:03;12.75;;;2.33;;
16440;SDS011;8330;-33.858;151.184;2024-01-15T10:06:34;7.10;;;1.98;;
16440;SDS011;8330;-33.858;151.184;2024-01-15T10:09:05;9.23;;;2.00;;
16440;SDS011;8330;-33.858;151.184;2024-01-15T10:11:37;11.63;;;2.85;;
16440;SDS011;8330;-33.858;151.184;2024-01-15T10:14:10;9.52;;;2.03;;
16440;SDS011;8330;-33.858;151.184;2024-01-15T10:16:43;11.60;;;2.30;;
16440;SDS011;8330;-33.858;151.184;2024-01-15T10:19:14;7.03;;;2.00;;
16440;SDS011;8330;-33.858;151.184;2024-01-15T10:21:45;11.48;;;1.92;;
16440;SDS011;8330;-33.858;151.184;2024-01-15T10:24:16;10.88;;;2.47;;
16440;SDS011;8330;-33.858;151.184;2024-01-15T10:26:48;11.60;;;2.45;;
16440;SDS011;8330;-33.858;151.184;2024-01-15T10:29:23;7.55;;;1.70;;
16440;SDS011;8330;-33.858;151.184;2024-01-15T10:31:55;7.10;;;1.83;;
16440;SDS011;8330;-33.858;151.184;2024-01-15T10:34:26;7.22;;;1.63;;
16440;SDS011;8330;-33.858;151.184;2024-01-15T10:36:57;8.23;;;1.80;;
16440;SDS011;8330;-33.858;151.184;2024-01-15T10:39:29;9.88;;;1.70;;
16440;SDS011;8330;-33.858;151.184;2024-01-15T10:42:00;10.93;;;1.83;;
16440;SDS011;8330;-33.858;151.184;2024-01-15T10:44:33;8.80;;;1.92;;
16440;SDS011;8330;-33.858;151.184;2024-01-15T10:47:04;7.03;;;1.75;;
16440;SDS011;8330;-33.858;151.184;2024-01-15T10:49:35;9.93;;;2.05;;
16440;SDS011;8330;-33.858;151.184;2024-01-15T10:52:08;6.65;;;1.75;;
16440;SDS011;8330;-33.858;151.184;2024-01-15T10:54:39;9.88;;;1.88;;
16440;SDS011;8330;-33.858;151.184;2024-01-15T10:57:10;6.88;;;1.63;;
16440;SDS011;8330;-33.858;151.184;2024-01-15T10:59:44;7.70;;;1.70;;
16440;SDS011;8330;-33.858;151.184;2024-01-15T11:02:15;9.75;;;2.22;;
16440;SDS011;8330;-33.858;151.184;2024-01-15T11:04:46;8.15;;;1.90;;
16440;SDS011;8330;-33.858;151.184;2024-01-15T11:07:17;6.55;;;1.63;;
16440;SDS011;8330;-33.858;151.184;2024-01-15T11:09:52;8.57;;;2.08;;
16440;SDS011;8330;-33.858;151.184;2024-01-15T11:12:24;8.65;;;2.05;;
16440;SDS011;8330;-33.858;151.184;2024-01-15T11:15:03;9.45;;;1.98;;
16440;SDS011;8330;-33.858;151.184;2024-01-15T11:20:31;7.75;;;1.50;;
16440;SDS011;8330;-33.858;151.184;2024-01-15T11:23:02;8.18;;;1.70;;
16440;SDS011;8330;-33.858;151.184;2024-01-15T11:25:35;7.10;;;1.77;;
16440;SDS011;8330;-33.858;151.184;2024-01-15T11:28:09;9.18;;;2.00;;
16440;SDS011;8330;-33.858;151.184;2024-01-15T11:31:02;6.03;;;1.58;;
16440;SDS011;8330;-33.858;151.184;2024-01-15T11:33:33;8.23;;;1.98;;
16440;SDS011;8330;-33.858;151.184;2024-01-15T11:36:04;6.45;;;1.83;;
16440;SDS011;8330;-33.858;151.184;2024-01-15T11:38:38;7.15;;;1.70;;
16440;SDS011;8330;-33.858;151.184;2024-01-15T11:41:13;8.38;;;2.30;;
16440;SDS011;8330;-33.858;151.184;2024-01-15T11:43:44;8.07;;;1.85;;
16440;SDS011;8330;-33.858;151.184;2024-01-15T11:46:17;9.30;;;1.80;;
16440;SDS011;8330;-33.858;151.184;2024-01-15T11:48:48;9.27;;;1.73;;
16440;SDS011;8330;-33.858;151.184;2024-01-15T11:51:31;11.75;;;2.33;;
16440;SDS011;8330;-33.858;151.184;2024-01-15T11:54:08;11.73;;;2.40;;
16440;SDS011;8330;-33.858;151.184;2024-01-15T11:56:43;10.10;;;1.95;;
16440;SDS011;8330;-33.858;151.184;2024-01-15T11:59:14;12.77;;;2.15;;
16440;SDS011;8330;-33.858;151.184;2024-01-15T12:01:46;12.65;;;2.25;;
16440;SDS011;8330;-33.858;151.184;2024-01-15T12:04:17;9.68;;;2.22;;
16440;SDS011;8330;-33.858;151.184;2024-01-15T12:06:50;13.57;;;2.47;;
16440;SDS011;8330;-33.858;151.184;2024-01-15T12:09:20;9.93;;;1.90;;
16440;SDS011;8330;-33.858;151.184;2024-01-15T12:11:53;11.73;;;2.47;;
16440;SDS011;8330;-33.858;151.184;2024-01-15T12:14:31;10.98;;;1.80;;
16440;SDS011;8330;-33.858;151.184;2024-01-15T12:17:04;9.63;;;2.10;;
16440;SDS011;8330;-33.858;151.184;2024-01-15T12:19:37;11.00;;;2.28;;
16440;SDS011;8330;-33.858;151.184;2024-01-15T12:22:08;11.50;;;2.03;;
16440;SDS011;8330;-33.858;151.184;2024-01-15T12:24:39;8.55;;;2.20;;
16440;SDS011;8330;-33.858;151.184;2024-01-15T12:27:09;10.95;;;2.10;;
16440;SDS011;8330;-33.858;151.184;2024-01-15T12:29:40;16.67;;;2.30;;
16440;SDS011;8330;-33.858;151.184;2024-01-15T12:32:14;10.18;;;1.80;;
16440;SDS011;8330;-33.858;151.184;2024-01-15T12:34:45;8.15;;;2.00;;
16440;SDS011;8330;-33.858;151.184;2024-01-15T12:37:17;14.07;;;2.05;;
16440;SDS011;8330;-33.858;151.184;2024-01-15T12:39:48;9.45;;;1.80;;
16440;SDS011;8330;-33.858;151.184;2024-01-15T12:42:21;10.73;;;2.28;;
16440;SDS011;8330;-33.858;151.184;2024-01-15T12:44:52;8.18;;;1.63;;
16440;SDS011;8330;-33.858;151.184;2024-01-15T12:47:27;11.77;;;2.20;;
16440;SDS011;8330;-33.858;151.184;2024-01-15T12:49:59;9.48;;;2.08;;
16440;SDS011;8330;-33.858;151.184;2024-01-15T12:52:29;12.10;;;1.90;;
16440;SDS011;8330;-33.858;151.184;2024-01-15T12:55:01;10.20;;;2.50;;
16440;SDS011;8330;-33.858;151.184;2024-01-15T12:57:32;5.88;;;1.60;;
16440;SDS011;8330;-33.858;151.184;2024-01-15T13:00:04;10.85;;;2.17;;
16440;SDS011;8330;-33.858;151.184;2024-01-15T13:02:40;9.57;;;1.98;;
16440;SDS011;8330;-33.858;151.184;2024-01-15T13:05:11;8.10;;;1.77;;
16440;SDS011;8330;-33.858;151.184;2024-01-15T13:07:42;8.38;;;1.77;;
16440;SDS011;8330;-33.858;151.184;2024-01-15T13:10:16;11.40;;;2.10;;
16440;SDS011;8330;-33.858;151.184;2024-01-15T13:12:46;7.78;;;1.80;;
16440;SDS011;8330;-33.858;151.184;2024-01-15T13:15:17;7.30;;;1.77;;
16440;SDS011;8330;-33.858;151.184;2024-01-15T13:17:52;11.77;;;1.98;;
16440;SDS011;8330;-33.858;151.184;2024-01-15T13:20:23;9.27;;;1.88;;
16440;SDS011;8330;-33.858;151.184;2024-01-15T13:22:54;12.02;;;2.10;;
16440;SDS011;8330;-33.858;151.184;2024-01-15T13:25:25;13.57;;;2.20;;
16440;SDS011;8330;-33.858;151.184;2024-01-15T13:27:56;9.70;;;2.20;;
16440;SDS011;8330;-33.858;151.184;2024-01-15T13:30:26;10.85;;;2.25;;
16440;SDS011;8330;-33.858;151.184;2024-01-15T13:32:59;10.93;;;2.08;;
16440;SDS011;8330;-33.858;151.184;2024-01-15T13:35:30;10.30;;;2.40;;
16440;SDS011;8330;-33.858;151.184;2024-01-15T13:38:02;10.35;;;2.00;;
16440;SDS011;8330;-33.858;151.184;2024-01-15T13:40:35;10.23;;;2.05;;
16440;SDS011;8330;-33.858;151.184;2024-01-15T13:43:05;12.68;;;2.30;;
16440;SDS011;8330;-33.858;151.184;2024-01-15T13:45:36;13.85;;;2.22;;
16440;SDS011;8330;-33.858;151.184;2024-01-15T13:48:09;12.35;;;2.20;;
16440;SDS011;8330;-33.858;151.184;2024-01-15T13:50:40;9.85;;;1.95;;
16440;SDS011;8330;-33.858;151.184;2024-01-15T13:53:10;10.50;;;1.83;;
16440;SDS011;8330;-33.858;151.184;2024-01-15T13:55:41;8.70;;;2.00;;
16440;SDS011;8330;-33.858;151.184;2024-01-15T13:58:12;9.60;;;1.85;;
16440;SDS011;8330;-33.858;151.184;2024-01-15T14:00:44;8.63;;;1.63;;
16440;SDS011;8330;-33.858;151.184;2024-01-15T14:03:17;9.38;;;1.90;;
16440;SDS011;8330;-33.858;151.184;2024-01-15T14:05:48;9.52;;;1.80;;
16440;SDS011;8330;-33.858;151.184;2024-01-15T14:08:19;8.73;;;1.40;;
16440;SDS011;8330;-33.858;151.184;2024-01-15T14:10:49;5.75;;;1.50;;
16440;SDS011;8330;-33.858;151.184;2024-01-15T14:13:21;12.00;;;1.88;;
16440;SDS011;8330;-33.858;151.184;2024-01-15T14:15:51;8.75;;;1.88;;
16440;SDS011;8330;-33.858;151.184;2024-01-15T14:18:24;8.50;;;1.70;;
16440;SDS011;8330;-33.858;151.184;2024-01-15T14:20:55;12.82;;;1.83;;
16440;SDS011;8330;-33.858;151.184;2024-01-15T14:23:26;9.38;;;2.00;;
16440;SDS011;8330;-33.858;151.184;2024-01-15T14:25:57;11.93;;;1.90;;
16440;SDS011;8330;-33.858;151.184;2024-01-15T14:28:27;10.32;;;1.70;;
16440;SDS011;8330;-33.858;151.184;2024-01-15T14:30:58;9.82;;;1.67;;
16440;SDS011;8330;-33.858;151.184;2024-01-15T14:33:33;12.77;;;1.85;;
16440;SDS011;8330;-33.858;151.184;2024-01-15T14:36:04;9.98;;;1.98;;
16440;SDS011;8330;-33.858;151.184;2024-01-15T14:38:35;11.30;;;2.05;;
16440;SDS011;8330;-33.858;151.184;2024-01-15T14:41:05;11.57;;;2.38;;
16440;SDS011;8330;-33.858;151.184;2024-01-15T14:43:36;10.32;;;1.90;;